Time;durP1;ratioP1;P1;durP2;ratioP2;P2;SDS_P1;SDS_P2;PMS_P1;PMS_P2;Temp;Humidity;BMP_temperature;BMP_pressure;BME280_temperature;BME280_humidity;BME280_pressure;Samples;Min_cycle;Max_cycle;Signal;HPM_P1;HPM_P2
2022/03/11 00:01:39;;;;;;;;;;;2.90;99.90;;;;;;5124382;28;19919;-70
2022/03/11 00:04:06;;;;;;;;;;;2.90;99.90;;;;;;5124675;28;19926;-71
2022/03/11 00:06:32;;;;;;;;;;;2.90;99.90;;;;;;5123526;28;19920;-71
2022/03/11 00:09:00;;;;;;;;;;;2.90;99.90;;;;;;5123908;28;19920;-71
2022/03/11 00:11:27;;;;;;;;;;;2.90;99.90;;;;;;5124159;28;19927;-71
2022/03/11 00:13:53;;;;;;;;;;;2.90;99.90;;;;;;5124069;28;20204;-71
2022/03/11 00:16:20;;;;;;;;;;;2.90;99.90;;;;;;5123765;28;19920;-71
2022/03/11 00:18:47;;;;;;;;;;;2.90;99.90;;;;;;5123920;28;19927;-70
2022/03/11 00:21:13;;;;;;;;;;;2.80;99.90;;;;;;5124424;28;19920;-71
2022/03/11 00:23:40;;;;;;;;;;;2.80;99.90;;;;;;5124396;28;19920;-71
2022/03/11 00:26:08;;;;;;;;;;;2.80;99.90;;;;;;5123412;28;19961;-71
2022/03/11 00:28:35;;;;;;;;;;;2.90;99.90;;;;;;5124153;28;20089;-71
2022/03/11 00:31:01;;;;;;;;;;;2.80;99.90;;;;;;5124319;28;19919;-71
2022/03/11 00:33:28;;;;;;;;;;;2.80;99.90;;;;;;5123994;28;19919;-70
2022/03/11 00:35:54;;;;;;;;;;;2.70;99.90;;;;;;5123553;28;20276;-71
2022/03/11 00:38:21;;;;;;;;;;;2.70;99.90;;;;;;5124159;28;20111;-70
2022/03/11 00:40:48;;;;;;;;;;;2.70;99.90;;;;;;5124057;28;19920;-71
2022/03/11 00:43:16;;;;;;;;;;;2.70;99.90;;;;;;5124008;28;19919;-70
2022/03/11 00:45:43;;;;;;;;;;;2.60;99.90;;;;;;5123421;28;19920;-71
2022/03/11 00:48:09;;;;;;;;;;;2.70;99.90;;;;;;5123714;28;20163;-70
2022/03/11 00:50:36;;;;;;;;;;;2.60;99.90;;;;;;5124017;28;19920;-70
2022/03/11 00:53:03;;;;;;;;;;;2.60;99.90;;;;;;5123932;28;19920;-71
2022/03/11 00:55:29;;;;;;;;;;;2.50;99.90;;;;;;5122959;28;19995;-71
2022/03/11 00:57:56;;;;;;;;;;;2.50;99.90;;;;;;5124052;28;19920;-71
2022/03/11 01:00:24;;;;;;;;;;;2.50;99.90;;;;;;5123908;28;19920;-73
2022/03/11 01:02:51;;;;;;;;;;;2.40;99.90;;;;;;5124001;28;19920;-70
2022/03/11 01:05:17;;;;;;;;;;;2.40;99.90;;;;;;5123477;28;20019;-70
2022/03/11 01:07:44;;;;;;;;;;;2.40;99.90;;;;;;5123904;28;19923;-71
2022/03/11 01:10:10;;;;;;;;;;;2.40;99.90;;;;;;5131112;22;19935;-71
2022/03/11 01:12:38;;;;;;;;;;;2.40;99.90;;;;;;5110595;28;20211;-71
2022/03/11 01:15:05;;;;;;;;;;;2.30;99.90;;;;;;5102922;28;20153;-71
2022/03/11 01:17:33;;;;;;;;;;;2.30;99.90;;;;;;5102646;28;19991;-71
2022/03/11 01:20:00;;;;;;;;;;;2.30;99.90;;;;;;5091489;28;20162;-71
2022/03/11 01:22:26;;;;;;;;;;;2.20;99.90;;;;;;5082777;28;19928;-71
2022/03/11 01:24:53;;;;;;;;;;;2.20;99.90;;;;;;5083320;28;19924;-71
2022/03/11 01:27:19;;;;;;;;;;;2.20;99.90;;;;;;5102515;28;19920;-71
2022/03/11 01:29:46;;;;;;;;;;;2.10;99.90;;;;;;5103351;28;19924;-70
2022/03/11 01:32:13;;;;;;;;;;;2.10;99.90;;;;;;5102519;28;20203;-69
2022/03/11 01:34:41;;;;;;;;;;;2.10;99.90;;;;;;5085849;28;20100;-71
2022/03/11 01:37:07;;;;;;;;;;;2.10;99.90;;;;;;5085743;28;19920;-70
2022/03/11 01:39:34;;;;;;;;;;;2.20;99.90;;;;;;5093472;28;19927;-71
2022/03/11 01:42:00;;;;;;;;;;;2.20;99.90;;;;;;5100415;28;20218;-72
2022/03/11 01:44:27;;;;;;;;;;;2.10;99.90;;;;;;5085790;28;20140;-71
2022/03/11 01:46:54;;;;;;;;;;;2.10;99.90;;;;;;5085633;28;19920;-70
2022/03/11 01:49:21;;;;;;;;;;;2.00;99.90;;;;;;5085744;28;19952;-71
2022/03/11 01:51:49;;;;;;;;;;;2.00;99.80;;;;;;5085429;28;19921;-70
2022/03/11 01:54:16;;;;;;;;;;;2.00;99.80;;;;;;5098514;28;19927;-71
2022/03/11 01:56:43;;;;;;;;;;;2.00;99.60;;;;;;5105875;28;19920;-69
2022/03/11 01:59:11;;;;;;;;;;;1.90;99.20;;;;;;5105875;28;20115;-71
2022/03/11 02:01:37;;;;;;;;;;;1.90;99.10;;;;;;5105758;28;19965;-71
2022/03/11 02:04:04;;;;;;;;;;;1.90;99.00;;;;;;5104811;28;20211;-71
2022/03/11 02:06:30;;;;;;;;;;;1.80;98.60;;;;;;5105602;28;20012;-71
2022/03/11 02:08:59;;;;;;;;;;;1.80;98.40;;;;;;5105278;28;19977;-72
2022/03/11 02:11:25;;;;;;;;;;;1.70;98.20;;;;;;5105682;28;19958;-71
2022/03/11 02:13:53;;;;;;;;;;;1.70;98.40;;;;;;5105233;28;19927;-70
2022/03/11 02:16:20;;;;;;;;;;;1.70;98.30;;;;;;5102111;28;19920;-71
2022/03/11 02:18:47;;;;;;;;;;;1.70;98.20;;;;;;5084911;28;19926;-70
2022/03/11 02:21:14;;;;;;;;;;;1.70;97.90;;;;;;5089381;28;20123;-71
2022/03/11 02:23:44;;;;;;;;;;;1.60;97.90;;;;;;5105702;28;19928;-71
2022/03/11 02:26:11;;;;;;;;;;;1.60;97.90;;;;;;5104439;28;20154;-70
2022/03/11 02:28:37;;;;;;;;;;;1.60;98.10;;;;;;5105271;28;19920;-71
2022/03/11 02:31:04;;;;;;;;;;;1.50;98.10;;;;;;5104445;28;19986;-71
2022/03/11 02:33:31;;;;;;;;;;;1.50;98.10;;;;;;5105175;28;19961;-70
2022/03/11 02:35:57;;;;;;;;;;;1.40;98.10;;;;;;5104640;28;19927;-70
2022/03/11 02:38:24;;;;;;;;;;;1.40;98.30;;;;;;5101743;28;19927;-70
2022/03/11 02:40:52;;;;;;;;;;;1.40;98.20;;;;;;5104771;28;19920;-71
2022/03/11 02:43:18;;;;;;;;;;;1.40;97.60;;;;;;5105054;28;19920;-71
2022/03/11 02:45:45;;;;;;;;;;;1.40;97.30;;;;;;5104636;28;20204;-70
2022/03/11 02:48:11;;;;;;;;;;;1.40;97.00;;;;;;5097692;28;20116;-70
2022/03/11 02:50:38;;;;;;;;;;;1.30;96.90;;;;;;5097761;28;19920;-71
2022/03/11 02:53:05;;;;;;;;;;;1.20;97.00;;;;;;5104774;28;20233;-71
2022/03/11 02:55:31;;;;;;;;;;;1.20;97.00;;;;;;5104697;28;19920;-71
2022/03/11 02:57:59;;;;;;;;;;;1.10;96.60;;;;;;5104185;28;19924;-70
2022/03/11 03:00:26;;;;;;;;;;;1.10;96.50;;;;;;5104445;28;19936;-70
2022/03/11 03:02:53;;;;;;;;;;;1.10;96.20;;;;;;5104613;28;19924;-71
2022/03/11 03:05:19;;;;;;;;;;;1.10;95.90;;;;;;5103917;28;19927;-70
2022/03/11 03:07:46;;;;;;;;;;;1.00;95.80;;;;;;5104007;28;19955;-70
2022/03/11 03:10:13;;;;;;;;;;;1.00;95.30;;;;;;5104059;28;19920;-71
2022/03/11 03:12:40;;;;;;;;;;;0.90;95.00;;;;;;5104292;28;19926;-71
2022/03/11 03:15:09;;;;;;;;;;;0.90;94.80;;;;;;5103971;28;19921;-71
2022/03/11 03:17:36;;;;;;;;;;;0.90;94.90;;;;;;5101583;28;19920;-70
2022/03/11 03:20:04;;;;;;;;;;;0.90;94.80;;;;;;5093900;28;19920;-70
2022/03/11 03:22:30;;;;;;;;;;;0.90;94.30;;;;;;5104601;28;19920;-70
2022/03/11 03:24:57;;;;;;;;;;;0.90;93.80;;;;;;5105012;28;19946;-71
2022/03/11 03:27:24;;;;;;;;;;;0.80;93.90;;;;;;5104694;28;19920;-70
2022/03/11 03:29:50;;;;;;;;;;;0.80;93.60;;;;;;5103637;28;19920;-71
2022/03/11 03:32:18;;;;;;;;;;;0.80;93.40;;;;;;5097989;28;20186;-71
2022/03/11 03:34:45;;;;;;;;;;;0.70;93.20;;;;;;5104392;28;19927;-71
2022/03/11 03:37:12;;;;;;;;;;;0.70;93.30;;;;;;5103139;28;19928;-70
2022/03/11 03:39:40;;;;;;;;;;;0.70;92.90;;;;;;5083969;28;19920;-70
2022/03/11 03:42:07;;;;;;;;;;;0.60;92.80;;;;;;5084077;28;19924;-71
2022/03/11 03:44:33;;;;;;;;;;;0.60;92.80;;;;;;5084346;28;19956;-70
2022/03/11 03:47:00;;;;;;;;;;;0.60;92.70;;;;;;5098361;28;20111;-70
2022/03/11 03:49:30;;;;;;;;;;;0.60;92.80;;;;;;5104434;28;19920;-71
2022/03/11 03:51:57;;;;;;;;;;;0.60;92.40;;;;;;5103595;28;19920;-70
2022/03/11 03:54:23;;;;;;;;;;;0.60;92.40;;;;;;5103683;28;19920;-71
2022/03/11 03:56:50;;;;;;;;;;;0.60;92.40;;;;;;5103779;28;20119;-70
2022/03/11 03:59:16;;;;;;;;;;;0.60;92.20;;;;;;5104218;28;19927;-71
2022/03/11 04:01:43;;;;;;;;;;;0.50;92.10;;;;;;5104363;28;19920;-71
2022/03/11 04:04:11;;;;;;;;;;;0.50;92.10;;;;;;5104067;28;20215;-70
2022/03/11 04:06:40;;;;;;;;;;;0.50;92.20;;;;;;5104095;28;19921;-71
2022/03/11 04:09:08;;;;;;;;;;;0.50;92.10;;;;;;5104082;28;19935;-71
2022/03/11 04:11:34;;;;;;;;;;;0.50;92.00;;;;;;5104310;28;19927;-70
2022/03/11 04:14:01;;;;;;;;;;;0.40;92.30;;;;;;5103889;28;20262;-71
2022/03/11 04:16:29;;;;;;;;;;;0.50;92.50;;;;;;5104060;28;19926;-70
2022/03/11 04:18:56;;;;;;;;;;;0.40;92.30;;;;;;5084999;28;19987;-71
2022/03/11 04:21:22;;;;;;;;;;;0.40;92.40;;;;;;5083998;28;19927;-70
2022/03/11 04:23:51;;;;;;;;;;;0.30;92.30;;;;;;5083923;28;19921;-70
2022/03/11 04:26:18;;;;;;;;;;;0.30;92.50;;;;;;5083711;28;20089;-70
2022/03/11 04:28:44;;;;;;;;;;;0.30;92.50;;;;;;5083476;28;19920;-70
2022/03/11 04:31:12;;;;;;;;;;;0.30;92.50;;;;;;5083841;28;19940;-71
2022/03/11 04:33:39;;;;;;;;;;;0.30;92.60;;;;;;5083667;28;19962;-70
2022/03/11 04:36:18;;;;;;;;;;;0.30;92.50;;;;;;5083141;28;19926;-70
2022/03/11 04:38:45;;;;;;;;;;;0.30;92.70;;;;;;5083270;28;20227;-70
2022/03/11 04:41:13;;;;;;;;;;;0.20;92.70;;;;;;5083307;28;20204;-71
2022/03/11 04:43:39;;;;;;;;;;;0.20;92.80;;;;;;5083801;28;19927;-70
2022/03/11 04:46:06;;;;;;;;;;;0.20;92.90;;;;;;5083557;28;19920;-71
2022/03/11 04:48:32;;;;;;;;;;;0.20;92.90;;;;;;5083560;28;19921;-71
2022/03/11 04:51:10;;;;;;;;;;;0.30;92.90;;;;;;5099266;28;19920;-71
2022/03/11 04:53:37;;;;;;;;;;;0.20;92.90;;;;;;5103935;28;20119;-70
2022/03/11 04:56:03;;;;;;;;;;;0.20;92.80;;;;;;5103531;28;19920;-70
2022/03/11 04:58:31;;;;;;;;;;;0.20;92.90;;;;;;5103288;28;19991;-70
2022/03/11 05:01:01;;;;;;;;;;;0.20;92.90;;;;;;5102583;28;20203;-70
2022/03/11 05:03:27;;;;;;;;;;;0.10;93.00;;;;;;5103719;28;19924;-70
2022/03/11 05:05:54;;;;;;;;;;;0.10;93.10;;;;;;5107020;28;20208;-70
2022/03/11 05:08:21;;;;;;;;;;;0.10;93.30;;;;;;5107098;28;19920;-70
2022/03/11 05:10:47;;;;;;;;;;;0.00;93.30;;;;;;5106696;28;19920;-70
2022/03/11 05:13:14;;;;;;;;;;;0.10;93.40;;;;;;5107399;28;19920;-71
2022/03/11 05:15:42;;;;;;;;;;;0.00;93.30;;;;;;5106552;28;19990;-70
2022/03/11 05:18:11;;;;;;;;;;;0.00;93.20;;;;;;5095241;28;20230;-70
2022/03/11 05:20:37;;;;;;;;;;;0.00;93.30;;;;;;5087523;28;19991;-70
2022/03/11 05:23:04;;;;;;;;;;;0.00;93.40;;;;;;5101792;28;20283;-70
2022/03/11 05:25:30;;;;;;;;;;;-0.10;93.20;;;;;;5092947;28;19920;-70
2022/03/11 05:27:57;;;;;;;;;;;-0.10;93.30;;;;;;5085916;28;19921;-70
2022/03/11 05:30:24;;;;;;;;;;;-0.10;93.60;;;;;;5088200;28;19950;-70
2022/03/11 05:32:52;;;;;;;;;;;-0.20;93.50;;;;;;5085913;28;19927;-70
2022/03/11 05:35:18;;;;;;;;;;;-0.30;93.60;;;;;;5085416;28;19927;-70
2022/03/11 05:37:46;;;;;;;;;;;-0.30;93.70;;;;;;5085843;28;20161;-70
2022/03/11 05:40:13;;;;;;;;;;;-0.30;93.80;;;;;;5089596;28;20114;-70
2022/03/11 05:42:39;;;;;;;;;;;-0.40;93.90;;;;;;5093797;28;19924;-69
2022/03/11 05:45:07;;;;;;;;;;;-0.40;94.00;;;;;;5105113;28;20153;-70
2022/03/11 05:47:34;;;;;;;;;;;-0.40;94.10;;;;;;5105189;28;19982;-70
2022/03/11 05:50:02;;;;;;;;;;;-0.40;94.20;;;;;;5102055;28;19926;-70
2022/03/11 05:52:28;;;;;;;;;;;-0.40;94.40;;;;;;5086254;28;20100;-70
2022/03/11 05:54:55;;;;;;;;;;;-0.40;94.30;;;;;;5085421;28;20196;-70
2022/03/11 05:57:21;;;;;;;;;;;-0.40;94.40;;;;;;5097958;28;19920;-70
2022/03/11 05:59:48;;;;;;;;;;;-0.40;94.50;;;;;;5104314;28;19920;-70
2022/03/11 06:02:15;;;;;;;;;;;-0.40;94.50;;;;;;5095733;28;19920;-70
2022/03/11 06:04:41;;;;;;;;;;;-0.40;94.30;;;;;;5105233;28;19924;-70
2022/03/11 06:07:09;;;;;;;;;;;-0.40;94.50;;;;;;5104986;28;19990;-69
2022/03/11 06:09:36;;;;;;;;;;;-0.40;94.40;;;;;;5104954;28;19920;-74
2022/03/11 06:12:03;;;;;;;;;;;-0.40;94.60;;;;;;5086944;28;19926;-73
2022/03/11 06:14:29;;;;;;;;;;;-0.30;95.00;;;;;;5085623;28;19920;-70
2022/03/11 06:16:56;;;;;;;;;;;-0.30;94.70;;;;;;5084190;28;19924;-70
2022/03/11 06:19:23;;;;;;;;;;;-0.30;94.70;;;;;;5084827;28;19927;-70
2022/03/11 06:21:49;;;;;;;;;;;-0.30;94.60;;;;;;5085558;28;19943;-70
2022/03/11 06:24:17;;;;;;;;;;;-0.30;94.70;;;;;;5098444;28;19926;-70
2022/03/11 06:26:44;;;;;;;;;;;-0.30;94.50;;;;;;5101668;28;19923;-70
2022/03/11 06:29:11;;;;;;;;;;;-0.30;94.70;;;;;;5105292;28;20208;-70
2022/03/11 06:31:38;;;;;;;;;;;-0.30;94.70;;;;;;5105008;28;20107;-70
2022/03/11 06:34:05;;;;;;;;;;;-0.30;94.70;;;;;;5104472;28;19927;-70
2022/03/11 06:36:34;;;;;;;;;;;-0.30;94.70;;;;;;5104685;28;19990;-70
2022/03/11 06:39:00;;;;;;;;;;;-0.20;95.00;;;;;;5105029;28;19920;-70
2022/03/11 06:41:28;;;;;;;;;;;-0.20;95.00;;;;;;5098809;28;19924;-71
2022/03/11 06:43:55;;;;;;;;;;;-0.20;94.70;;;;;;5104186;28;19940;-71
2022/03/11 06:46:21;;;;;;;;;;;-0.20;94.90;;;;;;5103671;28;19927;-71
2022/03/11 06:48:48;;;;;;;;;;;-0.10;94.90;;;;;;5104672;28;19921;-70
2022/03/11 06:51:14;;;;;;;;;;;-0.10;94.80;;;;;;5088259;28;19924;-70
2022/03/11 06:53:41;;;;;;;;;;;-0.10;94.90;;;;;;5084986;28;19924;-70
2022/03/11 06:56:08;;;;;;;;;;;0.00;95.00;;;;;;5082942;28;19921;-70
2022/03/11 06:58:35;;;;;;;;;;;0.00;95.00;;;;;;5099179;28;19986;-70
2022/03/11 07:01:03;;;;;;;;;;;0.00;95.20;;;;;;5092528;28;19924;-70
2022/03/11 07:03:30;;;;;;;;;;;0.00;95.20;;;;;;5090679;28;20247;-70
2022/03/11 07:05:57;;;;;;;;;;;0.10;95.10;;;;;;5092906;28;20237;-70
2022/03/11 07:08:24;;;;;;;;;;;0.10;95.20;;;;;;5104221;28;19926;-70
2022/03/11 07:10:51;;;;;;;;;;;0.10;95.30;;;;;;5128011;22;19990;-70
2022/03/11 07:13:18;;;;;;;;;;;0.20;95.20;;;;;;5123454;28;19998;-71
2022/03/11 07:15:46;;;;;;;;;;;0.30;95.30;;;;;;5108678;28;19926;-70
2022/03/11 07:18:13;;;;;;;;;;;0.30;95.20;;;;;;5125084;28;20199;-71
2022/03/11 07:20:39;;;;;;;;;;;0.40;95.10;;;;;;5117163;28;19962;-71
2022/03/11 07:23:06;;;;;;;;;;;0.50;95.20;;;;;;5107000;27;19928;-72
2022/03/11 07:25:34;;;;;;;;;;;0.60;95.10;;;;;;5119555;28;20215;-70
2022/03/11 07:28:00;;;;;;;;;;;0.60;94.90;;;;;;5116321;28;19920;-71
2022/03/11 07:30:27;;;;;;;;;;;0.70;94.80;;;;;;5123546;28;20113;-71
2022/03/11 07:32:55;;;;;;;;;;;0.70;94.90;;;;;;5124279;28;19928;-70
2022/03/11 07:35:22;;;;;;;;;;;0.80;94.90;;;;;;5124215;28;19927;-72
2022/03/11 07:37:50;;;;;;;;;;;0.90;95.00;;;;;;5124327;28;19928;-71
2022/03/11 07:40:16;;;;;;;;;;;1.00;94.70;;;;;;5123846;28;19951;-73
2022/03/11 07:42:44;;;;;;;;;;;1.10;94.90;;;;;;5124469;28;19926;-71
2022/03/11 07:45:12;;;;;;;;;;;1.10;94.80;;;;;;5124776;28;20120;-71
2022/03/11 07:47:40;;;;;;;;;;;1.20;95.00;;;;;;5125846;28;19919;-70
2022/03/11 07:50:09;;;;;;;;;;;1.30;95.00;;;;;;5120005;28;19920;-71
2022/03/11 07:52:35;;;;;;;;;;;1.40;94.80;;;;;;5109350;28;19928;-71
2022/03/11 07:55:02;;;;;;;;;;;1.50;94.60;;;;;;5123717;28;19920;-71
2022/03/11 07:57:29;;;;;;;;;;;1.50;94.60;;;;;;5113960;28;19920;-71
2022/03/11 07:59:56;;;;;;;;;;;1.60;94.50;;;;;;5103461;28;19955;-71
2022/03/11 08:02:22;;;;;;;;;;;1.70;94.60;;;;;;5104147;28;19928;-70
2022/03/11 08:04:49;;;;;;;;;;;1.80;94.50;;;;;;5109456;28;19920;-71
2022/03/11 08:07:17;;;;;;;;;;;1.80;94.70;;;;;;5122277;28;19934;-71
2022/03/11 08:09:43;;;;;;;;;;;1.90;94.50;;;;;;5121723;28;19923;-71
2022/03/11 08:12:11;;;;;;;;;;;2.00;94.40;;;;;;5123188;28;20223;-71
2022/03/11 08:14:39;;;;;;;;;;;2.10;94.50;;;;;;5124155;28;19942;-70
2022/03/11 08:17:06;;;;;;;;;;;2.10;94.50;;;;;;5123778;28;19983;-73
2022/03/11 08:19:32;;;;;;;;;;;2.20;94.60;;;;;;5123670;28;19920;-72
2022/03/11 08:21:59;;;;;;;;;;;2.30;94.30;;;;;;5122714;28;20123;-71
2022/03/11 08:24:27;;;;;;;;;;;2.30;94.20;;;;;;5123210;28;19928;-72
2022/03/11 08:26:54;;;;;;;;;;;2.40;94.10;;;;;;5123158;28;19935;-72
2022/03/11 08:29:20;;;;;;;;;;;2.50;94.20;;;;;;5113049;28;19987;-71
2022/03/11 08:31:47;;;;;;;;;;;2.70;94.00;;;;;;5121417;28;19920;-71
2022/03/11 08:34:14;;;;;;;;;;;2.80;94.00;;;;;;5118660;28;20279;-71
2022/03/11 08:36:41;;;;;;;;;;;2.90;93.80;;;;;;5122604;28;19926;-71
2022/03/11 08:39:07;;;;;;;;;;;2.90;94.10;;;;;;5124661;28;19926;-71
2022/03/11 08:41:35;;;;;;;;;;;3.00;93.70;;;;;;5120283;28;19983;-71
2022/03/11 08:44:03;;;;;;;;;;;3.00;93.60;;;;;;5107244;28;19920;-71
2022/03/11 08:46:30;;;;;;;;;;;3.10;93.80;;;;;;5106445;28;19927;-71
2022/03/11 08:48:56;;;;;;;;;;;3.20;93.40;;;;;;5114140;28;20207;-73
2022/03/11 08:51:23;;;;;;;;;;;3.40;93.30;;;;;;5131709;27;19919;-73
2022/03/11 08:53:50;;;;;;;;;;;3.40;92.70;;;;;;5130733;27;19920;-72
2022/03/11 08:56:21;;;;;;;;;;;3.50;92.70;;;;;;5126725;28;19926;-71
2022/03/11 08:58:50;;;;;;;;;;;3.60;92.60;;;;;;5127424;28;19987;-71
2022/03/11 09:01:17;;;;;;;;;;;3.60;92.60;;;;;;5127399;28;19957;-71
2022/03/11 09:03:44;;;;;;;;;;;3.60;92.70;;;;;;5115012;28;19920;-71
2022/03/11 09:06:10;;;;;;;;;;;3.80;92.80;;;;;;5126578;28;20110;-71
2022/03/11 09:08:37;;;;;;;;;;;3.90;92.30;;;;;;5127362;28;19928;-71
2022/03/11 09:11:03;;;;;;;;;;;4.00;91.80;;;;;;5127140;28;19920;-71
2022/03/11 09:13:31;;;;;;;;;;;4.00;91.90;;;;;;5126835;28;19944;-71
2022/03/11 09:15:59;;;;;;;;;;;4.20;91.70;;;;;;5118005;28;19920;-71
2022/03/11 09:18:25;;;;;;;;;;;4.30;91.60;;;;;;5106601;28;19928;-73
2022/03/11 09:20:53;;;;;;;;;;;4.40;91.40;;;;;;5106682;28;19927;-73
2022/03/11 09:23:20;;;;;;;;;;;4.40;90.90;;;;;;5107115;28;19982;-70
2022/03/11 09:25:46;;;;;;;;;;;4.60;90.90;;;;;;5106365;28;19920;-70
2022/03/11 09:28:13;;;;;;;;;;;4.60;90.50;;;;;;5124082;28;19957;-70
2022/03/11 09:30:39;;;;;;;;;;;4.70;90.60;;;;;;5125841;28;19926;-70
2022/03/11 09:33:07;;;;;;;;;;;4.70;90.70;;;;;;5126492;28;19926;-70
2022/03/11 09:35:34;;;;;;;;;;;4.80;90.20;;;;;;5125824;28;20122;-70
2022/03/11 09:38:01;;;;;;;;;;;4.90;90.30;;;;;;5126720;28;20123;-70
2022/03/11 09:40:27;;;;;;;;;;;4.90;90.40;;;;;;5110972;28;19927;-70
2022/03/11 09:42:54;;;;;;;;;;;5.00;90.20;;;;;;5125574;28;19923;-70
2022/03/11 09:45:23;;;;;;;;;;;5.10;90.40;;;;;;5125794;28;19981;-70
2022/03/11 09:47:49;;;;;;;;;;;5.10;89.70;;;;;;5126480;28;19926;-70
2022/03/11 09:50:17;;;;;;;;;;;5.30;90.00;;;;;;5113027;28;19920;-70
2022/03/11 09:52:45;;;;;;;;;;;5.30;88.80;;;;;;5105940;28;19920;-70
2022/03/11 09:55:12;;;;;;;;;;;5.40;89.10;;;;;;5112776;28;19934;-70
2022/03/11 09:57:38;;;;;;;;;;;5.50;88.50;;;;;;5124658;28;19926;-70
2022/03/11 10:00:06;;;;;;;;;;;5.60;88.60;;;;;;5126002;28;19927;-70
2022/03/11 10:02:32;;;;;;;;;;;5.70;88.00;;;;;;5126338;28;19920;-70
2022/03/11 10:04:59;;;;;;;;;;;5.90;88.30;;;;;;5125900;28;19920;-70
2022/03/11 10:07:27;;;;;;;;;;;6.00;86.50;;;;;;5125422;28;20130;-70
2022/03/11 10:09:55;;;;;;;;;;;6.00;86.50;;;;;;5124085;28;19927;-70
2022/03/11 10:12:22;;;;;;;;;;;6.10;86.00;;;;;;5125509;28;19924;-70
2022/03/11 10:14:56;;;;;;;;;;;6.30;86.10;;;;;;5125751;28;19920;-70
2022/03/11 10:17:23;;;;;;;;;;;6.40;86.90;;;;;;5119859;28;19920;-70
2022/03/11 10:20:03;;;;;;;;;;;6.60;86.40;;;;;;5124600;28;19920;-70
2022/03/11 10:22:32;;;;;;;;;;;6.70;85.10;;;;;;5125695;28;20221;-70
2022/03/11 10:25:01;;;;;;;;;;;6.80;84.00;;;;;;5125969;28;19920;-70
2022/03/11 10:27:28;;;;;;;;;;;7.00;84.20;;;;;;5124998;28;19983;-70
2022/03/11 10:29:56;;;;;;;;;;;7.10;83.40;;;;;;5119396;28;19952;-70
2022/03/11 10:32:24;;;;;;;;;;;7.20;82.80;;;;;;5125429;28;19928;-70
2022/03/11 10:34:50;;;;;;;;;;;7.30;81.60;;;;;;5124814;28;19928;-70
2022/03/11 10:37:17;;;;;;;;;;;7.40;82.50;;;;;;5124695;28;19920;-70
2022/03/11 10:39:46;;;;;;;;;;;7.60;82.80;;;;;;5123740;28;19942;-70
2022/03/11 10:42:17;;;;;;;;;;;7.80;83.60;;;;;;5125161;28;19920;-70
2022/03/11 10:44:54;;;;;;;;;;;8.00;80.40;;;;;;5118137;28;19919;-70
2022/03/11 10:47:21;;;;;;;;;;;8.20;79.50;;;;;;5123843;28;20154;-71
2022/03/11 10:49:48;;;;;;;;;;;8.30;79.30;;;;;;5121688;28;20229;-70
2022/03/11 10:52:15;;;;;;;;;;;8.40;79.10;;;;;;5125275;28;19919;-70
2022/03/11 10:54:42;;;;;;;;;;;8.60;79.50;;;;;;5113706;28;19994;-70
2022/03/11 10:57:11;;;;;;;;;;;8.70;77.40;;;;;;5121035;28;19943;-70
2022/03/11 10:59:37;;;;;;;;;;;8.80;77.50;;;;;;5124065;28;19978;-70
2022/03/11 11:02:04;;;;;;;;;;;8.80;76.60;;;;;;5124787;28;19926;-69
2022/03/11 11:04:31;;;;;;;;;;;8.90;76.50;;;;;;5123720;28;19928;-70
2022/03/11 11:06:58;;;;;;;;;;;9.00;76.80;;;;;;5117274;28;19941;-70
2022/03/11 11:09:27;;;;;;;;;;;9.10;75.70;;;;;;5123541;28;20316;-70
2022/03/11 11:11:54;;;;;;;;;;;9.20;77.00;;;;;;5123668;28;19941;-70
2022/03/11 11:14:22;;;;;;;;;;;9.30;76.80;;;;;;5124384;28;19923;-70
2022/03/11 11:16:51;;;;;;;;;;;9.50;76.30;;;;;;5120486;28;20197;-70
2022/03/11 11:19:19;;;;;;;;;;;9.60;74.90;;;;;;5125770;27;19919;-70
2022/03/11 11:21:46;;;;;;;;;;;9.90;75.20;;;;;;5141692;27;20123;-74
2022/03/11 11:24:14;;;;;;;;;;;10.00;73.10;;;;;;5125936;27;19926;-70
2022/03/11 11:26:41;;;;;;;;;;;10.20;72.00;;;;;;5128603;27;19919;-70
2022/03/11 11:29:08;;;;;;;;;;;10.30;71.00;;;;;;5124943;28;19919;-70
2022/03/11 11:31:37;;;;;;;;;;;10.40;70.70;;;;;;5124597;28;19942;-70
2022/03/11 11:34:03;;;;;;;;;;;10.50;70.00;;;;;;5124480;28;19920;-70
2022/03/11 11:36:34;;;;;;;;;;;10.50;69.80;;;;;;5123487;28;19919;-70
2022/03/11 11:39:01;;;;;;;;;;;10.60;69.40;;;;;;5124509;28;19981;-70
2022/03/11 11:41:28;;;;;;;;;;;10.70;69.20;;;;;;5123980;28;19927;-69
2022/03/11 11:43:57;;;;;;;;;;;10.70;68.20;;;;;;5124523;28;20211;-70
2022/03/11 11:46:24;;;;;;;;;;;10.70;69.50;;;;;;5123314;28;19920;-70
2022/03/11 11:49:22;;;;;;;;;;;10.80;68.80;;;;;;5124596;28;20233;-71
2022/03/11 11:52:08;;;;;;;;;;;11.00;68.40;;;;;;5109434;28;19959;-71
2022/03/11 11:54:35;;;;;;;;;;;11.00;67.60;;;;;;5121969;28;19966;-71
2022/03/11 11:57:02;;;;;;;;;;;11.00;66.00;;;;;;5118045;28;20108;-70
2022/03/11 11:59:32;;;;;;;;;;;11.20;67.60;;;;;;5116907;28;19931;-70
2022/03/11 12:01:59;;;;;;;;;;;11.30;66.00;;;;;;5120366;28;19919;-71
2022/03/11 12:04:27;;;;;;;;;;;11.60;66.70;;;;;;5122249;28;19927;-69
2022/03/11 12:06:55;;;;;;;;;;;11.80;65.80;;;;;;5122292;28;19927;-69
2022/03/11 12:09:41;;;;;;;;;;;12.00;64.40;;;;;;5121605;28;19920;-70
2022/03/11 12:12:31;;;;;;;;;;;12.10;64.30;;;;;;5119570;28;20345;-70
2022/03/11 12:15:16;;;;;;;;;;;11.80;62.10;;;;;;5123032;28;19920;-70
2022/03/11 12:17:43;;;;;;;;;;;11.60;64.40;;;;;;5123300;28;19924;-69
2022/03/11 12:20:31;;;;;;;;;;;11.60;63.70;;;;;;5123596;28;19927;-69
2022/03/11 12:22:58;;;;;;;;;;;11.80;64.80;;;;;;5112378;28;20250;-70
2022/03/11 12:25:27;;;;;;;;;;;12.10;64.70;;;;;;5120488;28;19919;-73
2022/03/11 12:27:59;;;;;;;;;;;12.30;62.40;;;;;;5123763;28;19920;-70
2022/03/11 12:30:25;;;;;;;;;;;12.50;62.20;;;;;;5123657;28;19923;-71
2022/03/11 12:32:52;;;;;;;;;;;12.60;61.60;;;;;;5123544;28;19977;-71
2022/03/11 12:35:19;;;;;;;;;;;12.60;61.40;;;;;;5123229;28;19919;-71
2022/03/11 12:37:46;;;;;;;;;;;12.70;59.40;;;;;;5123584;28;20271;-71
2022/03/11 12:40:13;;;;;;;;;;;12.60;60.10;;;;;;5123613;28;20101;-71
2022/03/11 12:42:39;;;;;;;;;;;12.80;61.90;;;;;;5121388;28;19923;-71
2022/03/11 12:45:08;;;;;;;;;;;12.80;58.70;;;;;;5123782;28;19927;-71
2022/03/11 12:47:37;;;;;;;;;;;12.80;61.00;;;;;;5123928;28;19926;-71
2022/03/11 12:50:05;;;;;;;;;;;13.00;60.20;;;;;;5123372;28;19920;-71
2022/03/11 12:52:36;;;;;;;;;;;13.20;60.50;;;;;;5123188;28;20111;-70
2022/03/11 12:55:03;;;;;;;;;;;13.40;58.50;;;;;;5122239;28;19926;-69
2022/03/11 12:57:29;;;;;;;;;;;13.30;58.00;;;;;;5123049;28;19920;-70
2022/03/11 12:59:56;;;;;;;;;;;13.30;58.10;;;;;;5123239;28;19947;-70
2022/03/11 13:02:24;;;;;;;;;;;13.30;57.40;;;;;;5117033;28;19987;-71
2022/03/11 13:04:51;;;;;;;;;;;13.40;57.40;;;;;;5122638;28;19935;-72
2022/03/11 13:07:17;;;;;;;;;;;13.70;56.50;;;;;;5110675;28;19974;-72
2022/03/11 13:09:44;;;;;;;;;;;13.60;56.10;;;;;;5120274;28;19919;-73
2022/03/11 13:12:23;;;;;;;;;;;13.60;56.50;;;;;;5102986;28;19926;-73
2022/03/11 13:15:08;;;;;;;;;;;13.50;55.40;;;;;;5110267;28;19926;-71
2022/03/11 13:17:41;;;;;;;;;;;13.20;54.90;;;;;;5108043;28;19919;-71
2022/03/11 13:20:08;;;;;;;;;;;13.40;56.80;;;;;;5120380;28;20088;-72
2022/03/11 13:22:35;;;;;;;;;;;13.60;54.90;;;;;;5123783;28;19919;-73
2022/03/11 13:25:02;;;;;;;;;;;13.90;54.80;;;;;;5124212;28;19926;-71
2022/03/11 13:27:36;;;;;;;;;;;14.00;54.40;;;;;;5126499;28;19919;-72
2022/03/11 13:30:04;;;;;;;;;;;14.10;54.20;;;;;;5126488;28;19920;-72
2022/03/11 13:32:31;;;;;;;;;;;14.40;54.50;;;;;;5126923;28;19920;-72
2022/03/11 13:34:59;;;;;;;;;;;14.40;53.30;;;;;;5117155;28;19988;-73
2022/03/11 13:37:25;;;;;;;;;;;14.40;52.70;;;;;;5118858;28;20096;-73
2022/03/11 13:40:06;;;;;;;;;;;14.20;53.00;;;;;;5124298;28;19928;-73
2022/03/11 13:42:33;;;;;;;;;;;14.20;53.80;;;;;;5126728;28;20110;-72
2022/03/11 13:45:05;;;;;;;;;;;14.20;52.10;;;;;;5121073;28;19926;-72
2022/03/11 13:47:31;;;;;;;;;;;13.80;52.40;;;;;;5117917;28;19957;-72
2022/03/11 13:50:07;;;;;;;;;;;13.60;51.90;;;;;;5126506;28;19920;-72
2022/03/11 13:52:40;;;;;;;;;;;13.60;51.60;;;;;;5126981;28;19942;-73
2022/03/11 13:55:07;;;;;;;;;;;13.40;51.90;;;;;;5127025;27;19920;-70
2022/03/11 13:57:35;;;;;;;;;;;13.50;52.10;;;;;;5126084;28;19962;-71
2022/03/11 14:00:15;;;;;;;;;;;13.70;53.30;;;;;;5125733;28;20174;-71
2022/03/11 14:02:41;;;;;;;;;;;13.80;52.80;;;;;;5122947;28;19920;-72
2022/03/11 14:05:09;;;;;;;;;;;13.90;51.50;;;;;;5125829;28;19927;-71
2022/03/11 14:07:36;;;;;;;;;;;13.70;52.30;;;;;;5122121;28;19926;-72
2022/03/11 14:10:05;;;;;;;;;;;13.70;51.20;;;;;;5121668;28;19927;-72
2022/03/11 14:12:32;;;;;;;;;;;14.00;50.90;;;;;;5124415;28;19958;-72
2022/03/11 14:15:05;;;;;;;;;;;14.10;51.10;;;;;;5125720;28;19919;-71
2022/03/11 14:17:32;;;;;;;;;;;14.30;50.80;;;;;;5123617;28;20157;-71
2022/03/11 14:19:58;;;;;;;;;;;14.40;51.10;;;;;;5121509;28;20207;-71
2022/03/11 14:22:26;;;;;;;;;;;14.70;50.70;;;;;;5125102;28;19926;-72
2022/03/11 14:24:53;;;;;;;;;;;14.80;49.90;;;;;;5125750;28;20359;-72
2022/03/11 14:27:20;;;;;;;;;;;15.10;49.10;;;;;;5124573;28;19919;-71
2022/03/11 14:29:47;;;;;;;;;;;15.20;47.50;;;;;;5116604;28;19983;-72